Time;durP1;ratioP1;P1;durP2;ratioP2;P2;SDS_P1;SDS_P2;PMS_P1;PMS_P2;Temp;Humidity;BMP_temperature;BMP_pressure;BME280_temperature;BME280_humidity;BME280_pressure;Samples;Min_cycle;Max_cycle;Signal;HPM_P1;HPM_P2
2022/02/18 00:01:59;;;;;;;;;13.00;4.67;;;;;14.40;55.96;101063.13;5075761;28;60175;-74
2022/02/18 00:04:25;;;;;;;;;9.00;4.00;;;;;14.40;56.35;101056.94;5078952;28;45421;-73
2022/02/18 00:06:50;;;;;;;;;9.00;4.67;;;;;14.38;56.59;101053.38;5079705;28;45212;-75
2022/02/18 00:09:16;;;;;;;;;9.67;3.00;;;;;14.35;56.09;101051.63;5078602;28;61913;-74
2022/02/18 00:11:41;;;;;;;;;12.00;4.33;;;;;14.35;56.73;101053.41;5078422;28;61195;-75
2022/02/18 00:14:07;;;;;;;;;13.33;5.00;;;;;14.33;56.59;101047.22;5078363;27;56700;-73
2022/02/18 00:16:32;;;;;;;;;13.00;5.67;;;;;14.29;57.23;101030.38;5079351;28;45537;-74
2022/02/18 00:18:57;;;;;;;;;14.00;4.33;;;;;14.27;56.97;101017.97;5078779;28;62072;-74
2022/02/18 00:21:23;;;;;;;;;11.00;4.00;;;;;14.28;57.16;101030.38;5078533;28;56068;-76
2022/02/18 00:23:48;;;;;;;;;8.33;3.67;;;;;14.28;56.88;101025.06;5078833;28;53805;-74
2022/02/18 00:26:13;;;;;;;;;13.00;5.00;;;;;14.26;56.84;101032.16;5078461;28;53652;-73
2022/02/18 00:28:39;;;;;;;;;6.33;5.00;;;;;14.21;56.99;101024.19;5079213;28;45551;-74
2022/02/18 00:31:04;;;;;;;;;9.67;5.00;;;;;14.24;56.65;101031.28;5079047;28;45426;-74
2022/02/18 00:33:30;;;;;;;;;7.67;4.00;;;;;14.24;57.16;101031.28;5078353;28;53593;-74
2022/02/18 00:35:55;;;;;;;;;8.67;3.67;;;;;14.22;57.51;101019.75;5085751;27;55616;-74
2022/02/18 00:38:21;;;;;;;;;15.67;4.67;;;;;14.20;57.44;101018.88;5083570;27;54968;-74
2022/02/18 00:40:46;;;;;;;;;9.33;4.00;;;;;14.21;57.16;101012.66;5060855;28;59883;-74
2022/02/18 00:43:12;;;;;;;;;6.67;4.00;;;;;14.22;56.98;101012.69;5080044;28;45893;-74
2022/02/18 00:45:37;;;;;;;;;10.00;4.33;;;;;14.22;57.17;100998.50;5061974;28;45624;-75
2022/02/18 00:48:03;;;;;;;;;11.00;3.67;;;;;14.22;57.08;100987.88;5079556;28;58979;-73
2022/02/18 00:50:28;;;;;;;;;8.00;2.00;;;;;14.23;57.00;100973.75;5079740;28;45284;-74
2022/02/18 00:52:54;;;;;;;;;8.00;4.67;;;;;14.23;57.47;100979.06;5061371;28;56963;-74
2022/02/18 00:55:19;;;;;;;;;8.33;4.00;;;;;14.22;57.58;100971.94;5079642;28;48350;-74
2022/02/18 00:57:44;;;;;;;;;7.67;4.00;;;;;14.19;57.92;100954.25;5060407;28;45624;-74
2022/02/18 01:00:11;;;;;;;;;13.00;2.00;;;;;14.23;57.59;100964.00;5076714;28;48188;-75
2022/02/18 01:02:45;;;;;;;;;11.33;4.00;;;;;14.21;59.35;100954.25;5076179;28;45553;-74
2022/02/18 01:05:13;;;;;;;;;7.67;4.00;;;;;14.20;58.24;100945.41;5078031;28;45647;-74
2022/02/18 01:07:38;;;;;;;;;8.33;3.67;;;;;14.10;58.61;100936.56;5060971;28;45733;-74
2022/02/18 01:10:04;;;;;;;;;8.00;4.67;;;;;14.19;58.47;100946.28;5078157;28;59247;-74
2022/02/18 01:12:30;;;;;;;;;8.00;3.00;;;;;14.17;58.51;100932.16;5078498;28;45699;-72
2022/02/18 01:14:55;;;;;;;;;6.33;3.00;;;;;14.15;58.59;100920.63;5075256;28;53754;-74
2022/02/18 01:17:20;;;;;;;;;11.00;6.00;;;;;14.17;59.21;100921.53;5077983;28;63685;-73
2022/02/18 01:19:46;;;;;;;;;15.00;8.00;;;;;14.18;58.50;100903.81;5078115;28;58754;-73
2022/02/18 01:22:11;;;;;;;;;7.00;4.67;;;;;14.15;58.77;100886.97;5077328;28;52131;-73
2022/02/18 01:24:37;;;;;;;;;14.33;4.33;;;;;14.20;59.05;100894.94;5078673;28;45448;-73
2022/02/18 01:27:03;;;;;;;;;9.33;3.33;;;;;14.20;59.15;100894.94;5076849;28;46344;-72
2022/02/18 01:29:28;;;;;;;;;7.00;4.00;;;;;14.18;58.69;100896.72;5076669;28;45416;-73
2022/02/18 01:31:54;;;;;;;;;6.33;3.00;;;;;14.19;59.19;100881.66;5076687;28;45971;-74
2022/02/18 01:34:19;;;;;;;;;4.00;2.33;;;;;14.21;59.32;100879.88;5076328;28;48263;-73
2022/02/18 01:36:44;;;;;;;;;4.67;3.67;;;;;14.21;59.38;100877.22;5076089;28;45491;-74
2022/02/18 01:39:10;;;;;;;;;8.33;4.00;;;;;14.23;59.64;100862.19;5075666;28;60571;-73
2022/02/18 01:41:35;;;;;;;;;6.00;3.33;;;;;14.23;59.40;100856.88;5077296;28;45510;-73
2022/02/18 01:44:03;;;;;;;;;12.00;3.00;;;;;14.20;60.14;100841.81;5078378;28;45358;-73
2022/02/18 01:46:29;;;;;;;;;4.00;2.33;;;;;14.24;59.53;100845.38;5078387;28;46417;-74
2022/02/18 01:48:54;;;;;;;;;4.00;2.67;;;;;14.24;59.99;100829.44;5059891;28;55909;-73
2022/02/18 01:51:21;;;;;;;;;6.33;2.00;;;;;14.24;59.89;100838.28;5078730;28;45513;-73
2022/02/18 01:53:48;;;;;;;;;9.00;2.33;;;;;14.22;60.56;100817.91;5078444;28;45317;-73
2022/02/18 01:56:13;;;;;;;;;7.00;3.67;;;;;14.23;61.77;100819.69;5077946;28;46517;-74
2022/02/18 01:58:38;;;;;;;;;9.00;3.00;;;;;14.22;61.34;100817.91;5060055;28;45412;-73
2022/02/18 02:01:04;;;;;;;;;6.33;3.00;;;;;14.22;61.17;100817.91;5078343;28;45682;-73
2022/02/18 02:03:29;;;;;;;;;6.67;1.00;;;;;14.21;61.40;100813.50;5078339;28;45347;-72
2022/02/18 02:05:56;;;;;;;;;5.00;2.67;;;;;14.21;64.25;100805.53;5059918;28;45602;-72
2022/02/18 02:08:21;;;;;;;;;5.33;2.00;;;;;14.19;63.36;100809.97;5078160;28;45426;-73
2022/02/18 02:10:46;;;;;;;;;5.00;2.33;;;;;14.16;64.05;100800.22;5077592;28;45231;-73
2022/02/18 02:13:32;;;;;;;;;6.67;3.00;;;;;14.13;62.83;100786.97;5076131;28;51187;-74
2022/02/18 02:15:58;;;;;;;;;4.00;3.00;;;;;14.10;63.34;100787.88;5077851;28;45717;-73
2022/02/18 02:18:23;;;;;;;;;6.67;4.00;;;;;14.13;65.55;100782.56;5060066;28;45387;-73
2022/02/18 02:20:49;;;;;;;;;6.67;2.00;;;;;14.10;64.40;100777.25;5078085;28;45719;-74
2022/02/18 02:23:15;;;;;;;;;8.00;4.00;;;;;14.09;64.83;100770.16;5077586;28;55496;-73
2022/02/18 02:25:41;;;;;;;;;5.00;3.00;;;;;14.04;68.66;100769.31;5077631;28;45480;-73
2022/02/18 02:28:06;;;;;;;;;8.00;3.67;;;;;14.02;66.47;100767.56;5077394;28;53842;-73
2022/02/18 02:30:31;;;;;;;;;11.00;4.00;;;;;13.99;65.40;100763.13;5077551;28;48787;-74
2022/02/18 02:32:57;;;;;;;;;3.00;3.00;;;;;14.00;66.35;100758.69;5059089;28;54876;-73
2022/02/18 02:35:22;;;;;;;;;2.67;2.67;;;;;13.95;66.39;100749.88;5077030;28;61941;-73
2022/02/18 02:37:48;;;;;;;;;3.33;3.33;;;;;13.99;66.18;100757.81;5076604;28;59803;-73
2022/02/18 02:40:18;;;;;;;;;4.00;3.00;;;;;14.00;66.90;100743.66;5076853;28;56515;-73
2022/02/18 02:42:43;;;;;;;;;5.00;2.67;;;;;14.01;66.28;100733.91;5307111;22;45568;-74
2022/02/18 02:45:09;;;;;;;;;4.00;3.33;;;;;14.00;66.36;100719.75;5077685;27;45529;-73
2022/02/18 02:47:34;;;;;;;;;3.00;3.00;;;;;14.01;66.53;100710.94;5097423;27;45304;-73
2022/02/18 02:50:00;;;;;;;;;7.00;4.00;;;;;13.99;67.05;100709.16;5096128;27;45367;-72
2022/02/18 02:52:25;;;;;;;;;7.67;4.00;;;;;13.97;68.39;100706.53;5097360;27;45447;-73
2022/02/18 02:54:50;;;;;;;;;2.00;2.00;;;;;13.96;68.07;100696.81;5096817;27;60767;-73
2022/02/18 02:57:16;;;;;;;;;3.00;3.00;;;;;13.96;67.58;100686.19;5096595;27;57171;-73
2022/02/18 02:59:41;;;;;;;;;6.00;3.00;;;;;13.98;68.17;100675.56;5096483;27;56112;-74
2022/02/18 03:02:07;;;;;;;;;3.67;3.33;;;;;13.98;67.60;100665.81;5095426;27;52590;-73
2022/02/18 03:04:32;;;;;;;;;4.00;3.00;;;;;13.93;68.21;100646.38;5096866;27;47442;-73
2022/02/18 03:06:58;;;;;;;;;3.00;3.00;;;;;13.99;68.28;100653.41;5097202;27;45446;-73
2022/02/18 03:09:23;;;;;;;;;7.33;2.67;;;;;13.94;68.14;100652.56;5096801;27;46008;-73
2022/02/18 03:11:48;;;;;;;;;4.00;3.00;;;;;13.99;68.67;100650.75;5096616;27;45661;-72
2022/02/18 03:14:14;;;;;;;;;3.00;3.00;;;;;14.00;70.06;100650.75;5096303;27;58841;-72
2022/02/18 03:16:39;;;;;;;;;5.00;2.00;;;;;14.01;68.63;100649.88;5098784;27;51834;-73
2022/02/18 03:19:05;;;;;;;;;1.67;0.33;;;;;14.01;68.49;100633.03;5097563;27;45370;-72
2022/02/18 03:21:30;;;;;;;;;2.00;2.00;;;;;14.04;70.83;100643.66;5097600;27;45354;-73
2022/02/18 03:23:55;;;;;;;;;2.00;2.00;;;;;14.07;69.75;100635.69;5097474;27;45606;-73
2022/02/18 03:26:21;;;;;;;;;2.00;2.00;;;;;14.08;68.92;100622.38;5097255;27;59025;-73
2022/02/18 03:28:46;;;;;;;;;3.33;2.00;;;;;14.06;68.83;100618.88;5097009;27;45389;-73
2022/02/18 03:31:12;;;;;;;;;2.00;2.00;;;;;14.13;69.58;100627.66;5097124;27;45589;-73
2022/02/18 03:33:38;;;;;;;;;2.00;2.00;;;;;14.15;69.72;100629.41;5096039;27;62554;-73
2022/02/18 03:36:03;;;;;;;;;2.33;1.67;;;;;14.10;69.67;100612.63;5096450;27;45408;-73
2022/02/18 03:38:29;;;;;;;;;1.00;1.00;;;;;14.16;70.55;100625.84;5100352;27;45229;-73
2022/02/18 03:40:54;;;;;;;;;2.00;0.33;;;;;14.13;69.56;100627.66;5099667;27;53906;-73
2022/02/18 03:43:20;;;;;;;;;0.00;0.00;;;;;14.14;70.49;100622.34;5099077;27;46560;-72
2022/02/18 03:45:45;;;;;;;;;0.00;0.00;;;;;14.15;70.62;100624.09;5099486;27;48852;-72
2022/02/18 03:48:10;;;;;;;;;0.00;0.00;;;;;14.11;71.91;100606.44;5100577;27;45430;-72
2022/02/18 03:50:36;;;;;;;;;0.00;0.00;;;;;14.14;71.39;100592.25;5100098;27;45522;-73
2022/02/18 03:53:03;;;;;;;;;1.00;0.00;;;;;14.07;71.49;100585.25;5099643;27;46505;-74
2022/02/18 03:55:28;;;;;;;;;1.00;0.00;;;;;14.12;72.44;100589.63;5100076;27;45428;-73
2022/02/18 03:57:54;;;;;;;;;0.00;0.00;;;;;14.13;71.59;100574.56;5099405;27;53440;-73
2022/02/18 04:00:19;;;;;;;;;0.33;0.00;;;;;14.15;71.22;100573.66;5099916;27;49634;-74
2022/02/18 04:02:44;;;;;;;;;0.00;0.00;;;;;14.20;71.01;100570.06;5099260;27;54921;-73
2022/02/18 04:05:10;;;;;;;;;0.00;0.00;;;;;14.21;70.74;100572.72;5093650;27;57121;-73
2022/02/18 04:07:35;;;;;;;;;0.00;0.00;;;;;14.22;70.60;100573.59;5099955;27;45303;-73
2022/02/18 04:10:01;;;;;;;;;0.00;0.00;;;;;14.16;71.32;100547.97;5099725;27;45399;-73
2022/02/18 04:12:26;;;;;;;;;0.00;0.00;;;;;14.25;70.55;100557.66;5099398;27;45554;-73
2022/02/18 04:14:51;;;;;;;;;0.00;0.00;;;;;14.29;70.38;100565.59;5099796;27;45556;-73
2022/02/18 04:17:17;;;;;;;;;0.00;0.00;;;;;14.29;70.13;100541.69;5099683;27;57250;-73
2022/02/18 04:19:42;;;;;;;;;1.00;0.00;;;;;14.32;69.89;100546.06;5099595;27;45572;-73
2022/02/18 04:22:08;;;;;;;;;0.00;0.00;;;;;14.29;70.02;100530.19;5098560;27;61173;-73
2022/02/18 04:24:33;;;;;;;;;0.00;0.00;;;;;14.34;69.90;100538.97;5098970;27;45447;-74
2022/02/18 04:26:58;;;;;;;;;2.33;0.00;;;;;14.34;69.71;100544.28;5099459;27;52967;-73
2022/02/18 04:29:24;;;;;;;;;1.00;0.00;;;;;14.34;70.35;100542.53;5081792;27;45156;-73
2022/02/18 04:31:49;;;;;;;;;1.00;0.00;;;;;14.35;70.00;100524.81;5098987;27;46082;-72
2022/02/18 04:34:15;;;;;;;;;0.00;0.00;;;;;14.34;69.71;100508.00;5080483;27;58892;-74
2022/02/18 04:36:40;;;;;;;;;0.00;0.00;;;;;14.35;69.94;100517.72;5099808;27;45192;-74
2022/02/18 04:39:05;;;;;;;;;0.00;0.00;;;;;14.35;70.29;100508.88;5098931;27;55125;-74
2022/02/18 04:41:31;;;;;;;;;0.00;0.00;;;;;14.36;69.60;100507.97;5098904;27;58891;-72
2022/02/18 04:43:56;;;;;;;;;0.00;0.00;;;;;14.37;69.82;100505.28;5098827;27;45231;-74
2022/02/18 04:46:22;;;;;;;;;0.00;0.00;;;;;14.36;69.56;100508.84;5099708;27;45281;-73
2022/02/18 04:48:47;;;;;;;;;0.00;0.00;;;;;14.40;69.65;100501.75;5077395;27;55652;-73
2022/02/18 04:51:12;;;;;;;;;0.00;0.00;;;;;14.38;69.57;100501.75;5098893;27;60124;-73
2022/02/18 04:53:38;;;;;;;;;0.00;0.00;;;;;14.38;69.61;100491.13;5097691;27;62390;-73
2022/02/18 04:56:04;;;;;;;;;0.00;0.00;;;;;14.37;69.63;100507.94;5099359;27;45219;-74
2022/02/18 04:58:30;;;;;;;;;0.00;0.00;;;;;14.35;68.90;100501.78;5081165;27;45491;-74
2022/02/18 05:00:56;;;;;;;;;1.00;0.00;;;;;14.33;69.75;100498.28;5098579;27;45350;-73
2022/02/18 05:03:21;;;;;;;;;0.00;0.00;;;;;14.33;69.50;100489.44;5098422;27;45494;-73
2022/02/18 05:05:46;;;;;;;;;0.00;0.00;;;;;14.35;69.08;100487.63;5099189;27;45274;-73
2022/02/18 05:08:12;;;;;;;;;1.67;0.00;;;;;14.36;69.23;100479.63;5098431;27;51390;-72
2022/02/18 05:10:37;;;;;;;;;0.00;0.00;;;;;14.33;68.94;100471.72;5098658;27;46295;-72
2022/02/18 05:13:03;;;;;;;;;0.00;0.00;;;;;14.38;69.53;100479.59;5081166;27;45428;-72
2022/02/18 05:15:28;;;;;;;;;0.00;0.00;;;;;14.39;69.73;100476.94;5099207;27;45375;-72
2022/02/18 05:17:53;;;;;;;;;1.00;0.00;;;;;14.33;69.62;100461.09;5098286;27;53993;-72
2022/02/18 05:20:19;;;;;;;;;0.33;0.00;;;;;14.36;68.97;100465.47;5098419;27;46653;-73
2022/02/18 05:22:44;;;;;;;;;1.00;0.00;;;;;14.36;69.35;100462.81;5096556;27;45551;-73
2022/02/18 05:25:10;;;;;;;;;0.00;0.00;;;;;14.36;69.14;100457.50;5097566;27;54152;-73
2022/02/18 05:27:35;;;;;;;;;1.00;0.00;;;;;14.37;69.59;100457.47;5098506;27;45643;-75
2022/02/18 05:30:01;;;;;;;;;2.00;0.00;;;;;14.37;69.23;100441.53;5096715;27;62779;-74
2022/02/18 05:32:26;;;;;;;;;0.00;0.00;;;;;14.37;69.32;100436.22;5097687;27;59810;-74
2022/02/18 05:34:51;;;;;;;;;0.00;0.00;;;;;14.39;69.26;100433.56;5094039;27;53244;-75
2022/02/18 05:37:17;;;;;;;;;0.00;0.00;;;;;14.35;68.94;100421.22;5096391;27;45644;-76
2022/02/18 05:39:42;;;;;;;;;0.00;0.00;;;;;14.36;68.89;100433.59;5096703;27;59289;-75
2022/02/18 05:42:08;;;;;;;;;0.00;0.00;;;;;14.36;68.91;100418.53;5096048;27;53802;-76
2022/02/18 05:44:34;;;;;;;;;0.00;0.00;;;;;14.36;68.63;100413.22;5079336;27;45350;-76
2022/02/18 05:47:00;;;;;;;;;0.00;0.00;;;;;14.30;69.15;100392.06;5097057;27;45511;-75
2022/02/18 05:49:26;;;;;;;;;1.00;0.00;;;;;14.36;68.88;100391.97;5095808;27;45890;-76
2022/02/18 05:51:51;;;;;;;;;0.00;0.00;;;;;14.37;69.08;100395.50;5097073;27;45521;-75
2022/02/18 05:54:16;;;;;;;;;1.00;0.00;;;;;14.37;69.36;100404.34;5096418;27;45478;-75
2022/02/18 05:56:42;;;;;;;;;1.00;0.00;;;;;14.37;69.22;100388.41;5096502;27;54442;-76
2022/02/18 05:59:07;;;;;;;;;1.00;0.00;;;;;14.38;68.79;100374.25;5096055;27;62279;-75
2022/02/18 06:01:33;;;;;;;;;0.00;0.00;;;;;14.39;69.39;100369.81;5096358;27;45560;-75
2022/02/18 06:03:58;;;;;;;;;0.00;0.00;;;;;14.38;68.80;100373.34;5097122;27;45479;-76
2022/02/18 06:06:23;;;;;;;;;1.00;0.00;;;;;14.41;69.13;100360.06;5096277;27;45470;-74
2022/02/18 06:08:49;;;;;;;;;0.00;0.00;;;;;14.41;68.88;100365.38;5096547;27;45467;-74
2022/02/18 06:11:14;;;;;;;;;0.00;0.00;;;;;14.39;69.44;100348.56;5097114;27;45364;-74
2022/02/18 06:13:40;;;;;;;;;1.00;0.00;;;;;14.38;68.82;100342.41;5102320;27;45372;-75
2022/02/18 06:16:05;;;;;;;;;1.67;0.00;;;;;14.33;69.05;100327.41;5097986;27;45469;-76
2022/02/18 06:18:31;;;;;;;;;0.00;0.00;;;;;14.35;69.44;100326.47;5099446;27;46255;-74
2022/02/18 06:20:56;;;;;;;;;0.67;0.00;;;;;14.35;69.21;100326.47;5095568;27;45776;-74
2022/02/18 06:23:21;;;;;;;;;1.00;0.00;;;;;14.34;68.79;100342.44;5087636;27;56170;-75
2022/02/18 06:25:47;;;;;;;;;0.00;0.00;;;;;14.32;69.22;100330.94;5096497;27;51958;-74
2022/02/18 06:28:13;;;;;;;;;0.00;0.00;;;;;14.31;69.04;100327.41;5079591;27;46669;-74
2022/02/18 06:30:40;;;;;;;;;0.00;0.00;;;;;14.30;69.39;100323.00;5094150;27;45465;-75
2022/02/18 06:33:06;;;;;;;;;1.00;1.00;;;;;14.29;68.75;100333.66;5090801;27;45559;-74
2022/02/18 06:35:32;;;;;;;;;1.67;1.00;;;;;14.28;68.93;100326.59;5095106;27;45554;-74
2022/02/18 06:37:57;;;;;;;;;2.00;2.00;;;;;14.26;69.36;100304.47;5089401;27;45567;-74
2022/02/18 06:40:22;;;;;;;;;1.00;1.00;;;;;14.27;68.84;100317.72;5076827;27;57788;-74
2022/02/18 06:42:48;;;;;;;;;0.00;0.00;;;;;14.28;69.34;100313.31;5093535;27;46694;-74
2022/02/18 06:45:17;;;;;;;;;0.00;0.00;;;;;14.28;68.82;100300.03;5094027;27;45453;-73
2022/02/18 06:47:46;;;;;;;;;1.33;0.00;;;;;14.26;69.53;100307.13;5094758;27;46723;-74
2022/02/18 06:50:13;;;;;;;;;1.00;0.00;;;;;14.25;68.74;100308.03;5095592;27;45391;-75
2022/02/18 06:52:39;;;;;;;;;2.00;0.00;;;;;14.27;68.44;100292.94;5097211;27;45314;-74
2022/02/18 06:55:05;;;;;;;;;1.00;0.00;;;;;14.25;68.99;100287.66;5095246;27;45663;-75
2022/02/18 06:57:30;;;;;;;;;0.00;0.00;;;;;14.26;68.97;100281.44;5095314;27;46327;-74
2022/02/18 06:59:56;;;;;;;;;1.67;0.00;;;;;14.27;68.89;100269.03;5095637;27;61483;-74
2022/02/18 07:02:21;;;;;;;;;0.00;0.00;;;;;14.29;68.41;100273.44;5095054;27;57447;-74
2022/02/18 07:04:47;;;;;;;;;1.33;0.00;;;;;14.26;68.59;100264.63;5089473;27;46102;-74
2022/02/18 07:07:13;;;;;;;;;0.00;0.00;;;;;14.31;68.25;100274.28;5088408;27;46600;-75
2022/02/18 07:09:39;;;;;;;;;1.00;0.00;;;;;14.31;68.41;100297.31;5088507;27;46341;-74
2022/02/18 07:12:04;;;;;;;;;0.00;0.00;;;;;14.32;68.54;100283.13;5090483;27;45610;-76
2022/02/18 07:14:30;;;;;;;;;0.67;0.00;;;;;14.32;68.20;100262.75;5091916;27;45548;-75
2022/02/18 07:16:55;;;;;;;;;0.00;0.00;;;;;14.31;68.63;100268.09;5090065;27;46428;-74
2022/02/18 07:19:21;;;;;;;;;0.33;0.00;;;;;14.29;68.57;100265.47;5046492;27;45543;-75
2022/02/18 07:21:46;;;;;;;;;0.67;0.00;;;;;14.29;69.13;100246.00;5090858;27;45983;-82
2022/02/18 07:24:12;;;;;;;;;1.33;0.00;;;;;14.28;68.58;100245.13;5072632;27;46023;-81
2022/02/18 07:26:38;;;;;;;;;3.00;0.00;;;;;14.28;68.72;100255.75;5056473;27;46569;-81
2022/02/18 07:29:04;;;;;;;;;2.00;0.00;;;;;14.28;68.51;100249.56;5051089;27;45625;-79
2022/02/18 07:31:29;;;;;;;;;0.00;0.00;;;;;14.32;69.04;100241.53;5072881;27;45526;-78
2022/02/18 07:33:55;;;;;;;;;0.00;0.00;;;;;14.37;68.20;100246.78;5091283;27;45622;-80
2022/02/18 07:36:20;;;;;;;;;0.00;0.00;;;;;14.34;68.26;100255.69;5040211;27;58071;-83
2022/02/18 07:38:46;;;;;;;;;0.00;0.00;;;;;14.27;68.51;100250.44;5051684;27;59613;-83
2022/02/18 07:41:11;;;;;;;;;0.67;0.67;;;;;14.21;68.68;100250.53;5069584;27;45579;-82
2022/02/18 07:43:37;;;;;;;;;0.00;0.00;;;;;14.23;68.99;100240.78;5067241;27;45643;-79
2022/02/18 07:46:03;;;;;;;;;1.00;0.00;;;;;14.25;68.75;100245.16;5072092;27;45466;-79
2022/02/18 07:48:28;;;;;;;;;1.00;0.00;;;;;14.29;68.27;100238.06;5071609;27;45623;-79
2022/02/18 07:50:53;;;;;;;;;0.00;0.00;;;;;14.30;68.53;100238.03;5049964;27;45559;-78
2022/02/18 07:53:19;;;;;;;;;1.00;0.00;;;;;14.31;68.31;100230.94;5083404;27;52841;-78
2022/02/18 07:55:44;;;;;;;;;2.00;0.00;;;;;14.37;68.53;100222.88;5073873;27;53732;-78
2022/02/18 07:58:11;;;;;;;;;2.00;0.00;;;;;14.42;68.09;100215.72;5046692;27;46069;-79
2022/02/18 08:00:38;;;;;;;;;0.00;0.00;;;;;14.40;68.32;100196.28;5041992;27;45681;-78
2022/02/18 08:03:03;;;;;;;;;0.00;0.00;;;;;14.45;68.09;100183.81;5071055;27;47552;-87
2022/02/18 08:05:28;;;;;;;;;4.33;0.00;;;;;14.41;67.98;100187.41;5050995;27;46323;-82
2022/02/18 08:07:56;;;;;;;;;2.00;0.00;;;;;14.41;67.65;100168.81;5091216;27;45342;-82
2022/02/18 08:10:22;;;;;;;;;0.00;0.00;;;;;14.41;67.51;100153.75;5058848;27;45563;-83
2022/02/18 08:12:48;;;;;;;;;0.00;0.00;;;;;14.39;67.67;100146.72;5079456;27;45532;-80
2022/02/18 08:15:13;;;;;;;;;0.00;0.00;;;;;14.41;67.72;100171.47;5091623;27;45978;-81
2022/02/18 08:17:38;;;;;;;;;0.00;0.00;;;;;14.44;67.32;100166.13;5093475;27;56796;-79
2022/02/18 08:20:05;;;;;;;;;0.00;0.00;;;;;14.42;67.12;100162.59;5088171;27;45558;-85
2022/02/18 08:22:30;;;;;;;;;1.00;0.00;;;;;14.36;67.44;100157.38;5074099;27;45324;-82
2022/02/18 08:24:56;;;;;;;;;1.00;0.00;;;;;14.43;67.26;100169.66;5089669;27;62664;-79
2022/02/18 08:27:21;;;;;;;;;0.00;0.00;;;;;14.44;66.75;100174.09;5099991;27;45486;-77
2022/02/18 08:29:46;;;;;;;;;1.00;0.00;;;;;14.48;67.06;100177.59;5090130;27;45453;-78
2022/02/18 08:32:12;;;;;;;;;0.00;0.00;;;;;14.46;66.69;100190.88;5083959;27;45865;-77
2022/02/18 08:34:37;;;;;;;;;0.00;0.00;;;;;14.50;67.19;100208.56;5087912;27;45637;-77
2022/02/18 08:37:03;;;;;;;;;0.00;0.00;;;;;14.53;67.14;100189.03;5059583;27;45480;-77
2022/02/18 08:39:29;;;;;;;;;0.00;0.00;;;;;14.57;66.84;100188.06;5095679;27;45612;-77
2022/02/18 08:41:54;;;;;;;;;0.00;0.00;;;;;14.61;67.02;100190.66;5096118;27;45499;-76
2022/02/18 08:44:19;;;;;;;;;0.67;0.00;;;;;14.63;66.34;100191.50;5095855;27;50388;-76
2022/02/18 08:46:45;;;;;;;;;0.00;0.00;;;;;14.60;66.49;100188.03;5094863;27;45761;-77
2022/02/18 08:49:10;;;;;;;;;0.00;0.00;;;;;14.62;66.50;100194.19;5095746;27;45611;-77
2022/02/18 08:51:36;;;;;;;;;0.00;0.00;;;;;14.58;66.99;100198.69;5096150;27;45500;-75
2022/02/18 08:54:01;;;;;;;;;0.00;0.00;;;;;14.59;66.84;100192.44;5096703;27;46379;-75
2022/02/18 08:56:26;;;;;;;;;0.00;0.00;;;;;14.58;66.73;100196.00;5097314;27;45529;-75
2022/02/18 08:58:52;;;;;;;;;0.00;0.00;;;;;14.57;66.74;100190.72;5078321;27;56792;-75
2022/02/18 09:01:17;;;;;;;;;0.00;0.00;;;;;14.58;67.19;100185.38;5092947;27;51874;-75
2022/02/18 09:03:43;;;;;;;;;1.00;0.00;;;;;14.57;67.72;100178.31;5095985;27;46662;-75
2022/02/18 09:06:09;;;;;;;;;0.33;0.00;;;;;14.55;67.56;100180.16;5095467;27;54959;-75
2022/02/18 09:08:34;;;;;;;;;0.00;0.00;;;;;14.55;67.71;100173.97;5097667;27;45632;-75
2022/02/18 09:10:59;;;;;;;;;1.00;0.00;;;;;14.53;67.93;100176.63;5094664;27;54602;-75
2022/02/18 09:13:25;;;;;;;;;0.67;0.00;;;;;14.53;67.81;100189.91;5095988;27;45732;-76
2022/02/18 09:15:51;;;;;;;;;0.67;0.00;;;;;14.48;68.97;100164.31;5095142;27;45539;-75
2022/02/18 09:18:17;;;;;;;;;5.33;0.67;;;;;14.50;69.31;100176.69;5095166;27;57119;-75
2022/02/18 09:20:44;;;;;;;;;0.00;0.00;;;;;14.48;68.96;100165.19;5092186;27;45521;-75
2022/02/18 09:23:10;;;;;;;;;2.00;0.00;;;;;14.51;68.62;100158.97;5093485;27;46538;-75
2022/02/18 09:25:35;;;;;;;;;0.00;0.00;;;;;14.53;69.13;100152.69;5093367;27;45501;-75
2022/02/18 09:28:01;;;;;;;;;0.00;0.00;;;;;14.53;70.20;100152.69;5095324;27;52432;-75
2022/02/18 09:30:26;;;;;;;;;0.00;0.00;;;;;14.57;69.55;100156.19;5095650;27;45626;-76
2022/02/18 09:32:52;;;;;;;;;1.33;0.33;;;;;14.50;69.26;100142.16;5095276;27;46726;-75
2022/02/18 09:35:17;;;;;;;;;0.00;0.00;;;;;14.55;69.41;100153.56;5076759;27;45478;-75
2022/02/18 09:37:42;;;;;;;;;0.00;0.00;;;;;14.51;69.40;100135.06;5096889;27;45524;-74
2022/02/18 09:40:08;;;;;;;;;0.00;0.00;;;;;14.60;69.83;100138.44;5095202;27;45653;-75
2022/02/18 09:42:35;;;;;;;;;0.00;0.00;;;;;14.65;69.81;100133.06;5094745;27;45386;-75
2022/02/18 09:45:01;;;;;;;;;0.00;0.00;;;;;14.62;69.77;100123.34;5093050;27;45473;-75
2022/02/18 09:47:26;;;;;;;;;0.00;0.00;;;;;14.66;69.72;100119.72;5078573;27;45903;-74
2022/02/18 09:49:52;;;;;;;;;0.00;0.00;;;;;14.67;69.91;100157.81;5095521;27;45385;-74
2022/02/18 09:52:17;;;;;;;;;1.00;0.00;;;;;14.66;69.89;100116.19;5074352;27;46840;-75
2022/02/18 09:54:42;;;;;;;;;0.00;0.00;;;;;14.66;70.25;100114.41;5094131;27;45461;-75
2022/02/18 09:57:08;;;;;;;;;0.00;0.00;;;;;14.71;70.11;100105.50;5094023;27;45411;-75
2022/02/18 09:59:34;;;;;;;;;2.00;0.00;;;;;14.84;71.29;100096.38;5092656;27;45488;-74
2022/02/18 10:02:01;;;;;;;;;0.00;0.00;;;;;14.93;70.50;100104.19;5096863;27;46355;-75
2022/02/18 10:04:27;;;;;;;;;0.00;0.00;;;;;15.00;70.63;100104.94;5076326;27;45616;-75
2022/02/18 10:06:52;;;;;;;;;0.00;0.00;;;;;15.01;69.88;100081.00;5094516;27;45591;-78
2022/02/18 10:09:36;;;;;;;;;0.00;0.00;;;;;15.05;69.78;100073.84;5092805;27;47899;-76
2022/02/18 10:12:02;;;;;;;;;1.00;0.00;;;;;15.08;70.19;100079.13;5077516;27;46710;-76
2022/02/18 10:14:49;;;;;;;;;0.00;0.00;;;;;15.05;70.05;100074.72;5095744;27;45532;-76
2022/02/18 10:17:14;;;;;;;;;0.00;0.00;;;;;15.03;69.38;100068.56;5069492;27;46799;-76
2022/02/18 10:19:52;;;;;;;;;0.00;0.00;;;;;15.04;69.74;100057.03;5089327;27;54169;-82
2022/02/18 10:22:25;;;;;;;;;0.33;0.00;;;;;15.19;69.39;100069.13;5081845;27;46677;-76
2022/02/18 10:24:52;;;;;;;;;0.67;0.00;;;;;15.12;69.22;100048.88;5093304;27;45659;-76
2022/02/18 10:27:38;;;;;;;;;0.00;0.00;;;;;15.13;68.96;100069.25;5059613;27;46253;-76
2022/02/18 10:30:04;;;;;;;;;0.00;0.00;;;;;15.06;69.51;100078.25;5092438;27;45495;-76
2022/02/18 10:32:30;;;;;;;;;0.00;0.00;;;;;14.98;69.45;100067.78;5095029;27;45884;-75
2022/02/18 10:34:57;;;;;;;;;0.00;0.00;;;;;14.96;69.52;100077.53;5057914;27;61798;-75
2022/02/18 10:37:23;;;;;;;;;0.00;0.00;;;;;14.93;69.76;100098.88;5097776;27;45579;-75
2022/02/18 10:39:49;;;;;;;;;0.00;0.00;;;;;14.94;69.82;100068.72;5096133;27;45535;-76
2022/02/18 10:42:15;;;;;;;;;0.00;0.00;;;;;14.94;70.13;100068.72;5094131;27;46383;-76
2022/02/18 10:44:40;;;;;;;;;0.00;0.00;;;;;14.94;69.65;100072.25;5093046;27;45790;-75
2022/02/18 10:47:06;;;;;;;;;0.00;0.00;;;;;14.94;69.97;100043.03;5094554;27;56954;-75
2022/02/18 10:49:33;;;;;;;;;0.00;0.00;;;;;14.91;70.20;100042.19;5059597;27;45384;-75
2022/02/18 10:52:12;;;;;;;;;0.00;0.00;;;;;14.86;69.92;100033.44;5095135;27;45921;-75
2022/02/18 10:54:37;;;;;;;;;0.00;0.00;;;;;14.94;69.62;100042.16;5094456;27;46686;-76
2022/02/18 10:57:12;;;;;;;;;0.00;0.00;;;;;15.02;69.58;100050.88;5096360;27;53806;-75
2022/02/18 10:59:38;;;;;;;;;0.33;0.00;;;;;15.07;68.97;100035.66;5094959;27;45683;-75
2022/02/18 11:02:03;;;;;;;;;0.00;0.00;;;;;15.09;69.31;100043.63;5094914;27;64815;-75
2022/02/18 11:04:28;;;;;;;;;0.00;0.00;;;;;15.12;69.50;100044.44;5076757;27;52510;-75
2022/02/18 11:07:17;;;;;;;;;0.67;0.00;;;;;15.16;69.11;100046.13;5080230;27;45431;-75
2022/02/18 11:09:43;;;;;;;;;0.00;0.00;;;;;15.12;69.65;100051.53;5075390;27;45408;-74
2022/02/18 11:12:09;;;;;;;;;0.00;0.00;;;;;15.13;69.79;100024.06;5091466;27;47467;-76
2022/02/18 11:14:48;;;;;;;;;0.00;0.00;;;;;15.11;69.37;100036.50;5092168;27;45517;-75
2022/02/18 11:17:14;;;;;;;;;0.00;0.00;;;;;15.10;69.57;100030.31;5094313;27;45569;-74
2022/02/18 11:19:43;;;;;;;;;0.00;0.00;;;;;15.04;69.61;100041.06;5095126;27;45493;-74